createdAt,value
2018-04-04T00:00:03.842Z,13.52
2018-04-04T00:01:03.390Z,13.50
2018-04-04T00:02:03.331Z,13.50
2018-04-04T00:03:03.037Z,13.46
2018-04-04T00:04:04.032Z,13.44
2018-04-04T00:05:03.397Z,13.42
2018-04-04T00:06:46.018Z,13.44
2018-04-04T00:07:47.171Z,13.42
2018-04-04T00:08:46.212Z,13.42
2018-04-04T00:09:46.459Z,13.42
2018-04-04T00:10:46.000Z,13.39
2018-04-04T00:11:46.923Z,13.37
2018-04-04T00:12:46.958Z,13.35
2018-04-04T00:13:47.018Z,13.33
2018-04-04T00:14:46.335Z,13.30
2018-04-04T00:15:45.900Z,13.27
2018-04-04T00:16:46.587Z,13.28
2018-04-04T00:17:45.988Z,13.28
2018-04-04T00:18:46.656Z,13.27
2018-04-04T00:19:46.288Z,13.23
2018-04-04T00:20:45.838Z,13.22
2018-04-04T00:21:46.605Z,13.20
2018-04-04T00:22:46.672Z,13.18
2018-04-04T00:23:46.175Z,13.15
2018-04-04T00:24:46.334Z,13.11
2018-04-04T00:25:46.352Z,13.05
2018-04-04T00:26:46.521Z,13.04
2018-04-04T00:28:10.178Z,13.04
2018-04-04T00:29:10.299Z,13.04
2018-04-04T00:30:09.758Z,13.01
2018-04-04T00:31:10.656Z,12.95
2018-04-04T00:32:10.160Z,12.93
2018-04-04T00:33:10.781Z,12.91
2018-04-04T00:34:31.494Z,12.87
2018-04-04T00:35:32.305Z,12.87
2018-04-04T00:36:32.236Z,12.87
2018-04-04T00:37:32.256Z,12.87
2018-04-04T00:38:52.692Z,12.86
2018-04-04T00:39:53.637Z,12.90
2018-04-04T00:41:15.554Z,12.94
2018-04-04T00:42:16.135Z,12.94
2018-04-04T00:43:16.065Z,12.93
2018-04-04T00:44:16.426Z,12.87
2018-04-04T00:45:16.626Z,12.87
2018-04-04T00:46:16.691Z,12.90
2018-04-04T00:47:16.327Z,12.86
2018-04-04T00:48:16.126Z,12.86
2018-04-04T00:49:36.770Z,12.90
2018-04-04T00:50:37.462Z,12.94
2018-04-04T00:51:36.994Z,12.98
2018-04-04T00:53:58.669Z,12.97
2018-04-04T00:54:59.194Z,12.98
2018-04-04T00:56:39.808Z,12.97
2018-04-04T00:58:01.804Z,12.97
2018-04-04T00:59:02.426Z,12.98
2018-04-04T01:00:02.023Z,12.95
2018-04-04T01:01:02.831Z,12.95
2018-04-04T01:02:02.467Z,12.94
2018-04-04T01:03:02.269Z,12.93
2018-04-04T01:04:02.038Z,12.91
2018-04-04T01:05:01.978Z,12.90
2018-04-04T01:06:02.725Z,12.91
2018-04-04T01:07:02.439Z,12.90
2018-04-04T01:08:43.174Z,12.83
2018-04-04T01:09:44.000Z,12.80
2018-04-04T01:10:43.730Z,12.78
2018-04-04T01:11:43.460Z,12.72
2018-04-04T01:12:43.903Z,12.70
2018-04-04T01:13:43.508Z,12.62
2018-04-04T01:15:04.913Z,12.58
2018-04-04T01:16:05.884Z,12.50
2018-04-04T01:17:05.511Z,12.45
2018-04-04T01:18:05.399Z,12.40
2018-04-04T01:19:04.776Z,12.32
2018-04-04T01:20:05.692Z,12.29
2018-04-04T01:21:05.172Z,12.24
2018-04-04T01:22:05.807Z,12.22
2018-04-04T01:23:05.401Z,12.17
2018-04-04T01:24:25.899Z,12.10
2018-04-04T01:25:47.681Z,12.04
2018-04-04T01:26:48.452Z,11.99
2018-04-04T01:27:47.802Z,11.95
2018-04-04T01:28:48.601Z,11.90
2018-04-04T01:29:48.237Z,11.88
2018-04-04T01:30:47.944Z,11.83
2018-04-04T01:31:48.609Z,11.75
2018-04-04T01:32:48.132Z,11.73
2018-04-04T01:33:47.543Z,11.70
2018-04-04T01:34:48.402Z,11.66
2018-04-04T01:35:47.769Z,11.59
2018-04-04T01:36:48.417Z,11.55
2018-04-04T01:37:48.238Z,11.54
2018-04-04T01:38:47.817Z,11.50
2018-04-04T01:39:48.522Z,11.45
2018-04-04T01:40:47.938Z,11.43
2018-04-04T01:41:48.601Z,11.36
2018-04-04T01:42:48.073Z,11.32
2018-04-04T01:43:48.440Z,11.26
2018-04-04T01:44:48.145Z,11.22
2018-04-04T01:45:47.847Z,11.17
2018-04-04T01:46:48.276Z,11.10
2018-04-04T01:48:08.620Z,11.04
2018-04-04T01:49:09.068Z,10.97
2018-04-04T01:50:09.225Z,10.94
2018-04-04T01:51:09.940Z,10.90
2018-04-04T01:52:09.418Z,10.86
2018-04-04T01:53:49.414Z,10.81
2018-04-04T01:54:49.793Z,10.76
2018-04-04T01:56:10.507Z,10.71
2018-04-04T01:57:11.001Z,10.64
2018-04-04T01:58:52.645Z,10.59
2018-04-04T01:59:53.203Z,10.56
2018-04-04T02:00:52.960Z,10.56
2018-04-04T02:01:53.490Z,10.51
2018-04-04T02:02:53.029Z,10.49
2018-04-04T02:03:53.393Z,10.46
2018-04-04T02:04:53.268Z,10.44
2018-04-04T02:06:13.982Z,10.38
2018-04-04T02:07:14.545Z,10.34
2018-04-04T02:08:14.158Z,10.33
2018-04-04T02:09:36.072Z,10.25
2018-04-04T02:10:36.553Z,10.20
2018-04-04T02:11:35.959Z,10.19
2018-04-04T02:12:36.682Z,10.13
2018-04-04T02:13:36.340Z,10.12
2018-04-04T02:14:35.883Z,10.12
2018-04-04T02:15:36.211Z,10.10
2018-04-04T02:16:37.202Z,10.09
2018-04-04T02:17:36.976Z,10.04
2018-04-04T02:18:36.603Z,10.01
2018-04-04T02:19:35.757Z,9.98
2018-04-04T02:20:36.052Z,9.94
2018-04-04T02:21:36.784Z,9.89
2018-04-04T02:22:57.790Z,9.86
2018-04-04T02:23:58.166Z,9.83
2018-04-04T02:24:57.804Z,9.86
2018-04-04T02:25:58.574Z,9.86
2018-04-04T02:26:58.487Z,9.80
2018-04-04T02:27:58.301Z,9.77
2018-04-04T02:28:57.791Z,9.80
2018-04-04T02:29:58.464Z,9.79
2018-04-04T02:31:18.263Z,9.82
2018-04-04T02:32:18.896Z,9.80
2018-04-04T02:33:18.651Z,9.79
2018-04-04T02:34:18.784Z,9.79
2018-04-04T02:35:19.175Z,9.77
2018-04-04T02:36:18.512Z,9.79
2018-04-04T02:37:19.024Z,9.77
2018-04-04T02:38:18.573Z,9.74
2018-04-04T02:39:39.567Z,9.73
2018-04-04T02:41:00.728Z,9.69
2018-04-04T02:42:01.141Z,9.68
2018-04-04T02:43:01.739Z,9.66
2018-04-04T02:44:01.101Z,9.66
2018-04-04T02:45:01.855Z,9.65
2018-04-04T02:46:01.400Z,9.64
2018-04-04T02:47:01.236Z,9.61
2018-04-04T02:48:00.872Z,9.58
2018-04-04T02:49:01.547Z,9.55
2018-04-04T02:50:01.346Z,9.50
2018-04-04T02:51:01.018Z,9.50
2018-04-04T02:52:01.277Z,9.50
2018-04-04T02:53:00.940Z,9.50
2018-04-04T02:54:01.642Z,9.55
2018-04-04T02:55:01.223Z,9.55
2018-04-04T02:56:22.734Z,9.58
2018-04-04T02:57:23.454Z,9.58
2018-04-04T02:58:23.250Z,9.56
2018-04-04T02:59:23.093Z,9.54
2018-04-04T03:00:22.471Z,9.55
2018-04-04T03:01:22.703Z,9.54
2018-04-04T03:02:23.320Z,9.51
2018-04-04T03:03:22.629Z,9.51
2018-04-04T03:04:23.437Z,9.55
2018-04-04T03:05:23.045Z,9.55
2018-04-04T03:06:23.382Z,9.54
2018-04-04T03:08:44.296Z,9.48
2018-04-04T03:09:44.408Z,9.48
2018-04-04T03:10:45.156Z,9.48
2018-04-04T03:11:44.523Z,9.46
2018-04-04T03:12:45.138Z,9.44
2018-04-04T03:13:44.371Z,9.46
2018-04-04T03:15:05.870Z,9.54
2018-04-04T03:16:06.565Z,9.56
2018-04-04T03:17:06.224Z,9.59
2018-04-04T03:18:06.571Z,9.61
2018-04-04T03:19:06.122Z,9.61
2018-04-04T03:20:06.760Z,9.64
2018-04-04T03:21:06.083Z,9.68
2018-04-04T03:22:06.772Z,9.69
2018-04-04T03:23:26.621Z,9.72
2018-04-04T03:24:27.339Z,9.69
2018-04-04T03:25:47.936Z,9.72
2018-04-04T03:26:48.201Z,9.73
2018-04-04T03:27:47.522Z,9.74
2018-04-04T03:28:48.203Z,9.74
2018-04-04T03:30:29.694Z,9.77
2018-04-04T03:31:51.515Z,9.80
2018-04-04T03:32:51.757Z,9.82
2018-04-04T03:34:13.822Z,9.80
2018-04-04T03:35:13.873Z,9.79
2018-04-04T03:36:14.503Z,9.80
2018-04-04T03:37:14.157Z,9.77
2018-04-04T03:38:54.610Z,9.76
2018-04-04T03:39:55.247Z,9.73
2018-04-04T03:41:15.062Z,9.72
2018-04-04T03:42:15.294Z,9.69
2018-04-04T03:43:15.765Z,9.68
2018-04-04T03:44:16.462Z,9.68
2018-04-04T03:45:15.688Z,9.68
2018-04-04T03:46:57.826Z,9.68
2018-04-04T03:47:58.424Z,9.68
2018-04-04T03:48:58.208Z,9.68
2018-04-04T03:49:58.507Z,9.66
2018-04-04T03:50:57.771Z,9.66
2018-04-04T03:52:58.958Z,9.65
2018-04-04T03:53:59.415Z,9.64
2018-04-04T03:55:00.043Z,9.64
2018-04-04T03:55:59.642Z,9.62
2018-04-04T03:56:58.974Z,9.61
2018-04-04T03:57:59.778Z,9.56
2018-04-04T03:59:00.379Z,9.55
2018-04-04T04:00:00.259Z,9.54
2018-04-04T04:00:59.551Z,9.48
2018-04-04T04:02:00.301Z,9.44
2018-04-04T04:03:00.060Z,9.41
2018-04-04T04:04:20.152Z,9.37
2018-04-04T04:05:41.691Z,9.29
2018-04-04T04:06:42.256Z,9.26
2018-04-04T04:08:02.812Z,9.19
2018-04-04T04:09:03.305Z,9.14
2018-04-04T04:10:02.538Z,9.11
2018-04-04T04:11:23.520Z,9.06
2018-04-04T04:12:24.035Z,9.02
2018-04-04T04:13:23.974Z,8.97
2018-04-04T04:14:23.360Z,8.95
2018-04-04T04:15:45.326Z,8.95
2018-04-04T04:16:45.731Z,8.95
2018-04-04T04:17:46.169Z,8.97
2018-04-04T04:18:46.022Z,8.97
2018-04-04T04:19:45.351Z,8.99
2018-04-04T04:20:45.587Z,9.03
2018-04-04T04:21:46.345Z,9.08
2018-04-04T04:22:45.989Z,9.14
2018-04-04T04:23:45.745Z,9.18
2018-04-04T04:24:45.169Z,9.22
2018-04-04T04:26:06.383Z,9.23
2018-04-04T04:27:07.237Z,9.26
2018-04-04T04:28:06.918Z,9.31
2018-04-04T04:29:07.481Z,9.34
2018-04-04T04:30:07.021Z,9.36
2018-04-04T04:31:07.687Z,9.37
2018-04-04T04:32:07.420Z,9.34
2018-04-04T04:33:07.183Z,9.32
2018-04-04T04:34:06.789Z,9.28
2018-04-04T04:35:07.408Z,9.26
2018-04-04T04:36:07.189Z,9.23
2018-04-04T04:37:06.521Z,9.23
2018-04-04T04:38:07.212Z,9.21
2018-04-04T04:39:06.485Z,9.22
2018-04-04T04:40:06.856Z,9.19
2018-04-04T04:41:07.291Z,9.16
2018-04-04T04:42:06.612Z,9.10
2018-04-04T04:43:48.983Z,9.08
2018-04-04T04:45:09.109Z,9.06
2018-04-04T04:46:30.321Z,9.00
2018-04-04T04:47:30.735Z,8.99
2018-04-04T04:48:31.538Z,8.99
2018-04-04T04:49:31.083Z,8.99
2018-04-04T04:51:12.647Z,8.97
2018-04-04T04:52:13.433Z,8.99
2018-04-04T04:53:12.910Z,8.97
2018-04-04T04:54:13.548Z,8.97
2018-04-04T04:55:33.641Z,8.92
2018-04-04T04:56:34.276Z,8.94
2018-04-04T04:57:33.910Z,8.94
2018-04-04T04:58:34.422Z,8.89
2018-04-04T04:59:34.674Z,8.88
2018-04-04T05:00:34.516Z,8.88
2018-04-04T05:01:33.841Z,8.87
2018-04-04T05:02:34.091Z,8.87
2018-04-04T05:03:34.457Z,8.89
2018-04-04T05:05:14.796Z,8.92
2018-04-04T05:06:15.610Z,8.94
2018-04-04T05:07:15.468Z,8.94
2018-04-04T05:08:14.918Z,8.97
2018-04-04T05:09:15.392Z,9.02
2018-04-04T05:10:16.174Z,9.04
2018-04-04T05:11:14.754Z,9.03
2018-04-04T05:12:15.505Z,9.10
2018-04-04T05:13:15.509Z,9.13
2018-04-04T05:14:14.813Z,9.19
2018-04-04T05:15:15.402Z,9.21
2018-04-04T05:16:35.533Z,9.25
2018-04-04T05:17:35.908Z,9.22
2018-04-04T05:18:57.418Z,9.26
2018-04-04T05:19:57.880Z,9.29
2018-04-04T05:20:58.307Z,9.31
2018-04-04T05:21:57.782Z,9.34
2018-04-04T05:22:58.112Z,9.39
2018-04-04T05:23:57.635Z,9.44
2018-04-04T05:24:58.073Z,9.51
2018-04-04T05:25:58.199Z,9.56
2018-04-04T05:26:57.840Z,9.61
2018-04-04T05:28:19.342Z,9.69
2018-04-04T05:29:40.806Z,9.77
2018-04-04T05:30:41.419Z,9.80
2018-04-04T05:31:40.927Z,9.80
2018-04-04T05:32:41.414Z,9.80
2018-04-04T05:33:41.333Z,9.79
2018-04-04T05:34:41.541Z,9.79
2018-04-04T05:35:41.397Z,9.79
2018-04-04T05:36:41.211Z,9.79
2018-04-04T05:38:01.681Z,9.79
2018-04-04T05:39:02.197Z,9.79
2018-04-04T05:40:01.812Z,9.77
2018-04-04T05:41:02.723Z,9.76
2018-04-04T05:42:02.449Z,9.76
2018-04-04T05:43:01.906Z,9.74
2018-04-04T05:44:23.032Z,9.77
2018-04-04T05:45:23.409Z,9.79
2018-04-04T05:46:23.065Z,9.79
2018-04-04T05:47:23.608Z,9.82
2018-04-04T05:48:23.512Z,9.97
2018-04-04T05:49:23.477Z,10.19
2018-04-04T05:50:23.560Z,10.31
2018-04-04T05:51:23.329Z,10.31
2018-04-04T05:52:43.840Z,10.26
2018-04-04T05:53:44.776Z,10.31
2018-04-04T05:54:44.339Z,10.38
2018-04-04T05:55:43.940Z,10.38
2018-04-04T05:56:44.623Z,10.44
2018-04-04T05:57:44.507Z,10.53
2018-04-04T05:58:44.248Z,10.54
2018-04-04T05:59:44.589Z,10.51
2018-04-04T06:00:44.546Z,10.46
2018-04-04T06:01:44.040Z,10.40
2018-04-04T06:02:44.836Z,10.40
2018-04-04T06:03:44.528Z,10.41
2018-04-04T06:04:44.369Z,10.48
2018-04-04T06:05:43.964Z,10.56
2018-04-04T06:06:44.648Z,10.57
2018-04-04T06:07:44.145Z,10.61
2018-04-04T06:08:44.592Z,10.69
2018-04-04T06:09:44.400Z,10.75
2018-04-04T06:10:43.804Z,10.81
2018-04-04T06:11:44.783Z,10.90
2018-04-04T06:13:05.465Z,11.02
2018-04-04T06:14:06.129Z,11.08
2018-04-04T06:15:06.004Z,11.10
2018-04-04T06:16:06.665Z,11.17
2018-04-04T06:17:06.688Z,11.23
2018-04-04T06:18:06.201Z,11.30
2018-04-04T06:19:05.594Z,11.40
2018-04-04T06:20:47.996Z,11.65
2018-04-04T06:21:48.578Z,11.77
2018-04-04T06:22:48.980Z,11.87
2018-04-04T06:23:48.806Z,11.94
2018-04-04T06:24:48.647Z,11.90
2018-04-04T06:26:09.923Z,11.99
2018-04-04T06:27:10.732Z,12.18
2018-04-04T06:28:31.192Z,12.49
2018-04-04T06:29:35.610Z,12.80
2018-04-04T06:30:35.719Z,13.01
2018-04-04T06:31:31.331Z,13.28
2018-04-04T06:32:31.899Z,13.60
2018-04-04T06:33:31.541Z,13.83
2018-04-04T06:34:32.376Z,13.99
2018-04-04T06:35:54.059Z,14.36
2018-04-04T06:36:54.901Z,14.54
2018-04-04T06:37:54.487Z,14.70
2018-04-04T06:38:54.416Z,14.86
2018-04-04T06:39:53.976Z,15.07
2018-04-04T06:40:56.719Z,15.28
2018-04-04T06:41:54.471Z,15.43
2018-04-04T06:42:54.310Z,15.67
2018-04-04T06:44:14.907Z,15.84
2018-04-04T06:45:15.565Z,16.16
2018-04-04T06:46:15.299Z,16.33
2018-04-04T06:47:35.673Z,16.57
2018-04-04T06:48:36.087Z,16.72
2018-04-04T06:49:36.202Z,16.96
2018-04-04T06:50:35.586Z,17.12
2018-04-04T06:51:36.373Z,16.76
2018-04-04T06:52:36.026Z,16.20
2018-04-04T06:53:56.879Z,16.08
2018-04-04T06:55:15.773Z,16.36
2018-04-04T06:55:57.364Z,16.79
2018-04-04T06:56:57.292Z,17.14
2018-04-04T06:57:56.797Z,17.15
2018-04-04T06:58:57.659Z,17.06
2018-04-04T07:00:39.993Z,17.52
2018-04-04T07:01:40.825Z,17.97
2018-04-04T07:02:40.301Z,18.18
2018-04-04T07:03:40.257Z,17.98
2018-04-04T07:04:41.127Z,17.46
2018-04-04T07:05:41.204Z,17.14
2018-04-04T07:06:40.600Z,16.91
2018-04-04T07:07:40.310Z,16.83
2018-04-04T07:09:01.918Z,16.41
2018-04-04T07:10:02.383Z,16.05
2018-04-04T07:11:02.453Z,15.86
2018-04-04T07:12:02.019Z,15.61
2018-04-04T07:13:02.850Z,15.57
2018-04-04T07:14:02.816Z,15.44
2018-04-04T07:15:02.755Z,15.35
2018-04-04T07:16:02.716Z,15.19
2018-04-04T07:17:02.565Z,15.03
2018-04-04T07:18:02.384Z,15.37
2018-04-04T07:19:22.410Z,16.04
2018-04-04T07:20:45.274Z,15.82
2018-04-04T07:21:46.494Z,15.67
2018-04-04T07:23:07.798Z,15.47
2018-04-04T07:24:30.099Z,15.31
2018-04-04T07:25:30.670Z,15.24
2018-04-04T07:26:30.220Z,15.22
2018-04-04T07:27:30.278Z,15.21
2018-04-04T07:28:29.920Z,15.19
2018-04-04T07:29:30.571Z,15.24
2018-04-04T07:31:36.413Z,15.09
2018-04-04T07:32:58.014Z,15.03
2018-04-04T07:33:58.915Z,15.10
2018-04-04T07:34:58.597Z,15.04
2018-04-04T07:35:58.373Z,14.96
2018-04-04T07:37:20.373Z,14.72
2018-04-04T07:38:20.436Z,14.58
2018-04-04T07:39:20.478Z,14.48
2018-04-04T07:40:20.290Z,14.41
2018-04-04T07:42:02.998Z,14.43
2018-04-04T07:43:03.795Z,14.41
2018-04-04T07:44:03.425Z,14.44
2018-04-04T07:45:04.304Z,14.47
2018-04-04T07:46:03.005Z,14.50
2018-04-04T07:47:03.757Z,14.50
2018-04-04T07:48:03.362Z,14.53
2018-04-04T07:49:02.837Z,14.69
2018-04-04T07:50:02.613Z,14.82
2018-04-04T07:51:08.634Z,14.91
2018-04-04T07:52:23.404Z,14.84
2018-04-04T07:53:26.569Z,14.82
2018-04-04T07:54:24.169Z,14.73
2018-04-04T07:55:25.892Z,14.65
2018-04-04T07:56:46.048Z,14.72
2018-04-04T07:57:45.760Z,14.79
2018-04-04T07:58:45.512Z,14.89
2018-04-04T07:59:46.392Z,14.79
2018-04-04T08:00:44.943Z,14.85
2018-04-04T08:01:44.486Z,14.92
2018-04-04T08:02:45.387Z,14.96
2018-04-04T08:03:45.371Z,14.99
2018-04-04T08:04:45.354Z,15.04
2018-04-04T08:05:45.029Z,15.04
2018-04-04T08:07:28.980Z,15.14
2018-04-04T08:08:50.362Z,15.07
2018-04-04T08:09:51.267Z,15.24
2018-04-04T08:10:51.399Z,15.15
2018-04-04T08:11:51.174Z,15.09
2018-04-04T08:12:50.983Z,14.97
2018-04-04T08:13:50.952Z,14.99
2018-04-04T08:14:50.679Z,15.02
2018-04-04T08:16:12.102Z,15.09
2018-04-04T08:17:12.569Z,15.19
2018-04-04T08:18:13.028Z,15.25
2018-04-04T08:19:12.410Z,15.29
2018-04-04T08:20:11.967Z,15.31
2018-04-04T08:21:12.604Z,15.40
2018-04-04T08:22:12.217Z,15.57
2018-04-04T08:23:54.724Z,15.75
2018-04-04T08:24:55.220Z,15.79
2018-04-04T08:25:54.993Z,15.97
2018-04-04T08:26:54.766Z,16.16
2018-04-04T08:28:16.951Z,16.38
2018-04-04T08:29:17.839Z,16.53
2018-04-04T08:30:17.808Z,16.35
2018-04-04T08:31:17.985Z,16.21
2018-04-04T08:32:17.749Z,16.20
2018-04-04T08:33:39.098Z,16.26
2018-04-04T08:35:00.780Z,16.36
2018-04-04T08:36:02.543Z,16.32
2018-04-04T08:37:01.323Z,16.38
2018-04-04T08:38:23.071Z,16.49
2018-04-04T08:39:23.747Z,16.60
2018-04-04T08:40:43.754Z,16.72
2018-04-04T08:41:44.666Z,16.61
2018-04-04T08:43:05.850Z,16.53
2018-04-04T08:44:06.708Z,16.51
2018-04-04T08:45:06.601Z,16.60
2018-04-04T08:46:06.531Z,16.87
2018-04-04T08:47:06.463Z,17.09
2018-04-04T08:48:06.368Z,17.20
2018-04-04T08:49:06.823Z,17.34
2018-04-04T08:50:06.483Z,17.49
2018-04-04T08:51:06.476Z,17.57
2018-04-04T08:52:06.270Z,17.41
2018-04-04T08:53:07.175Z,17.48
2018-04-04T08:54:27.592Z,17.54
2018-04-04T08:55:49.325Z,17.48
2018-04-04T08:56:48.889Z,17.29
2018-04-04T08:58:11.323Z,17.42
2018-04-04T08:59:11.709Z,17.38
2018-04-04T09:00:10.682Z,17.33
2018-04-04T09:01:10.322Z,17.45
2018-04-04T09:02:10.269Z,17.41
2018-04-04T09:03:32.248Z,17.06
2018-04-04T09:05:14.048Z,17.08
2018-04-04T09:06:35.147Z,16.96
2018-04-04T09:07:56.789Z,16.90
2018-04-04T09:08:57.600Z,16.74
2018-04-04T09:09:57.269Z,16.74
2018-04-04T09:10:57.034Z,16.71
2018-04-04T09:11:56.664Z,16.72
2018-04-04T09:12:57.368Z,16.66
2018-04-04T09:13:57.308Z,16.66
2018-04-04T09:14:56.874Z,16.69
2018-04-04T09:15:57.373Z,16.64
2018-04-04T09:16:57.260Z,16.74
2018-04-04T09:17:57.204Z,16.83
2018-04-04T09:18:57.581Z,16.79
2018-04-04T09:20:18.203Z,16.66
2018-04-04T09:21:19.068Z,16.64
2018-04-04T09:22:18.726Z,16.58
2018-04-04T09:23:18.643Z,16.49
2018-04-04T09:24:18.405Z,16.53
2018-04-04T09:25:40.236Z,16.46
2018-04-04T09:26:40.946Z,16.42
2018-04-04T09:27:40.610Z,16.41
2018-04-04T09:28:40.546Z,16.41
2018-04-04T09:29:40.131Z,16.43
2018-04-04T09:31:02.204Z,16.50
2018-04-04T09:32:02.951Z,16.53
2018-04-04T09:33:02.786Z,16.47
2018-04-04T09:34:02.507Z,16.53
2018-04-04T09:35:02.772Z,16.49
2018-04-04T09:36:02.455Z,16.31
2018-04-04T09:37:02.247Z,16.28
2018-04-04T09:38:03.084Z,16.32
2018-04-04T09:39:02.593Z,16.15
2018-04-04T09:40:02.483Z,16.29
2018-04-04T09:41:02.177Z,16.42
2018-04-04T09:42:02.930Z,16.49
2018-04-04T09:43:02.838Z,16.58
2018-04-04T09:44:22.969Z,16.74
2018-04-04T09:45:24.732Z,16.93
2018-04-04T09:46:23.984Z,17.14
2018-04-04T09:47:23.682Z,17.19
2018-04-04T09:48:23.617Z,17.34
2018-04-04T09:49:23.214Z,17.19
2018-04-04T09:51:29.444Z,17.06
2018-04-04T09:52:29.993Z,17.14
2018-04-04T09:53:50.950Z,17.27
2018-04-04T09:54:51.458Z,17.30
2018-04-04T09:55:51.001Z,17.45
2018-04-04T09:56:51.562Z,17.63
2018-04-04T09:57:51.239Z,17.94
2018-04-04T09:58:50.739Z,18.13
2018-04-04T10:00:36.022Z,18.74
2018-04-04T10:01:37.043Z,18.65
2018-04-04T10:02:37.035Z,18.20
2018-04-04T10:03:57.829Z,17.79
2018-04-04T10:04:58.876Z,17.71
2018-04-04T10:05:58.508Z,17.82
2018-04-04T10:06:58.547Z,17.89
2018-04-04T10:07:58.627Z,17.78
2018-04-04T10:08:58.705Z,17.67
2018-04-04T10:09:58.462Z,17.60
2018-04-04T10:10:58.108Z,17.67
2018-04-04T10:11:58.985Z,17.46
2018-04-04T10:12:59.042Z,17.52
2018-04-04T10:13:57.608Z,17.38
2018-04-04T10:14:57.954Z,17.27
2018-04-04T10:15:58.531Z,17.23
2018-04-04T10:16:58.143Z,17.01
2018-04-04T10:17:58.781Z,16.76
2018-04-04T10:18:58.200Z,16.50
2018-04-04T10:19:58.124Z,16.42
2018-04-04T10:20:58.137Z,16.42
2018-04-04T10:22:19.998Z,16.04
2018-04-04T10:23:20.799Z,16.05
2018-04-04T10:24:20.641Z,16.12
2018-04-04T10:25:20.487Z,16.04
2018-04-04T10:26:20.347Z,15.98
2018-04-04T10:27:20.553Z,16.00
2018-04-04T10:28:20.664Z,16.08
2018-04-04T10:29:20.580Z,16.02
2018-04-04T10:30:20.587Z,15.98
2018-04-04T10:32:06.189Z,15.80
2018-04-04T10:33:34.226Z,15.79
2018-04-04T10:35:16.111Z,15.51
2018-04-04T10:36:16.525Z,15.39
2018-04-04T10:37:16.235Z,15.29
2018-04-04T10:38:17.035Z,15.27
2018-04-04T10:39:16.887Z,15.22
2018-04-04T10:40:16.763Z,15.21
2018-04-04T10:41:16.710Z,15.14
2018-04-04T10:42:16.587Z,15.17
2018-04-04T10:43:16.501Z,15.03
2018-04-04T10:44:17.006Z,15.02
2018-04-04T10:45:16.921Z,15.03
2018-04-04T10:46:17.114Z,15.03
2018-04-04T10:47:16.896Z,15.11
2018-04-04T10:48:17.029Z,15.18
2018-04-04T10:49:16.878Z,15.27
2018-04-04T10:50:17.104Z,15.37
2018-04-04T10:51:38.302Z,15.54
2018-04-04T10:52:38.845Z,15.80
2018-04-04T10:53:38.570Z,16.09
2018-04-04T10:54:38.280Z,16.41
2018-04-04T10:55:38.955Z,16.51
2018-04-04T10:56:39.527Z,16.65
2018-04-04T10:57:38.555Z,16.78
2018-04-04T10:58:38.797Z,17.15
2018-04-04T10:59:38.332Z,17.46
2018-04-04T11:00:38.236Z,17.65
2018-04-04T11:01:39.028Z,18.18
2018-04-04T11:02:39.020Z,18.77
2018-04-04T11:03:38.866Z,19.67
2018-04-04T11:04:38.574Z,20.47
2018-04-04T11:05:38.061Z,20.34
2018-04-04T11:06:39.067Z,20.43
2018-04-04T11:07:38.659Z,20.28
2018-04-04T11:08:38.181Z,20.02
2018-04-04T11:09:38.741Z,19.82
2018-04-04T11:10:38.629Z,19.48
2018-04-04T11:11:38.507Z,19.26
2018-04-04T11:12:59.989Z,19.04
2018-04-04T11:14:00.792Z,18.89
2018-04-04T11:15:00.848Z,18.96
2018-04-04T11:16:21.589Z,19.04
2018-04-04T11:17:22.119Z,19.18
2018-04-04T11:18:22.519Z,19.07
2018-04-04T11:19:22.442Z,18.89
2018-04-04T11:20:21.861Z,18.77
2018-04-04T11:21:22.842Z,18.88
2018-04-04T11:22:22.933Z,19.00
2018-04-04T11:23:22.329Z,19.19
2018-04-04T11:24:22.255Z,19.18
2018-04-04T11:25:22.036Z,19.19
2018-04-04T11:26:22.982Z,19.24
2018-04-04T11:27:22.558Z,19.31
2018-04-04T11:28:22.676Z,19.07
2018-04-04T11:29:22.645Z,18.80
2018-04-04T11:30:22.515Z,18.89
2018-04-04T11:31:22.422Z,18.96
2018-04-04T11:32:22.137Z,18.92
2018-04-04T11:33:21.625Z,18.86
2018-04-04T11:34:44.720Z,19.12
2018-04-04T11:35:45.674Z,19.16
2018-04-04T11:36:45.722Z,19.08
2018-04-04T11:37:45.557Z,19.07
2018-04-04T11:38:45.006Z,19.04
2018-04-04T11:40:06.134Z,18.89
2018-04-04T11:41:29.754Z,18.63
2018-04-04T11:42:29.998Z,18.37
2018-04-04T11:43:30.054Z,18.34
2018-04-04T11:44:30.375Z,18.59
2018-04-04T11:45:29.416Z,18.95
2018-04-04T11:46:49.845Z,19.15
2018-04-04T11:47:50.264Z,19.15
2018-04-04T11:48:50.254Z,19.22
2018-04-04T11:50:11.329Z,18.99
2018-04-04T11:51:11.788Z,18.74
2018-04-04T11:52:11.814Z,18.49
2018-04-04T11:53:11.814Z,18.50
2018-04-04T11:54:11.656Z,18.44
2018-04-04T11:55:11.663Z,18.50
2018-04-04T11:56:11.556Z,18.55
2018-04-04T11:57:11.638Z,18.45
2018-04-04T11:58:11.545Z,18.37
2018-04-04T11:59:11.351Z,18.31
2018-04-04T12:00:34.919Z,18.26
2018-04-04T12:01:56.036Z,18.50
2018-04-04T12:02:57.149Z,18.62
2018-04-04T12:03:56.924Z,18.60
2018-04-04T12:04:57.017Z,18.34
2018-04-04T12:06:18.081Z,18.00
2018-04-04T12:07:18.108Z,17.67
2018-04-04T12:08:18.907Z,17.59
2018-04-04T12:09:18.922Z,17.67
2018-04-04T12:10:39.972Z,17.42
2018-04-04T12:11:40.722Z,17.39
2018-04-04T12:12:40.454Z,17.49
2018-04-04T12:13:40.478Z,17.63
2018-04-04T12:14:40.700Z,17.70
2018-04-04T12:15:41.158Z,17.76
2018-04-04T12:16:40.098Z,17.67
2018-04-04T12:17:40.285Z,17.63
2018-04-04T12:18:40.236Z,17.63
2018-04-04T12:19:40.600Z,17.59
2018-04-04T12:20:40.662Z,17.64
2018-04-04T12:22:01.918Z,17.56
2018-04-04T12:23:02.738Z,17.44
2018-04-04T12:24:02.693Z,17.42
2018-04-04T12:25:02.612Z,17.45
2018-04-04T12:26:02.482Z,17.54
2018-04-04T12:27:02.418Z,17.70
2018-04-04T12:28:02.441Z,17.86
2018-04-04T12:29:02.461Z,18.05
2018-04-04T12:30:02.353Z,17.83
2018-04-04T12:31:24.205Z,17.68
2018-04-04T12:32:24.128Z,17.78
2018-04-04T12:33:24.138Z,17.85
2018-04-04T12:34:24.866Z,18.00
2018-04-04T12:35:24.916Z,18.11
2018-04-04T12:36:24.886Z,18.22
2018-04-04T12:37:24.705Z,18.23
2018-04-04T12:38:25.186Z,18.07
2018-04-04T12:39:24.741Z,17.80
2018-04-04T12:40:24.651Z,17.57
2018-04-04T12:41:24.483Z,17.52
2018-04-04T12:42:24.297Z,17.39
2018-04-04T12:43:24.263Z,17.27
2018-04-04T12:44:44.857Z,17.15
2018-04-04T12:45:45.980Z,17.23
2018-04-04T12:46:45.867Z,17.12
2018-04-04T12:47:45.623Z,17.01
2018-04-04T12:48:45.463Z,16.91
2018-04-04T12:50:06.825Z,16.90
2018-04-04T12:51:07.746Z,16.97
2018-04-04T12:52:07.631Z,17.09
2018-04-04T12:53:07.696Z,17.22
2018-04-04T12:54:07.585Z,17.30
2018-04-04T12:55:07.605Z,17.31
2018-04-04T12:56:07.780Z,17.38
2018-04-04T12:57:07.626Z,17.45
2018-04-04T12:58:07.300Z,17.39
2018-04-04T12:59:07.262Z,17.20
2018-04-04T13:00:07.283Z,17.08
2018-04-04T13:01:07.057Z,16.99
2018-04-04T13:02:07.189Z,16.86
2018-04-04T13:03:07.178Z,16.66
2018-04-04T13:04:27.887Z,16.56
2018-04-04T13:05:28.503Z,16.53
2018-04-04T13:06:29.014Z,16.56
2018-04-04T13:07:28.607Z,16.58
2018-04-04T13:08:28.603Z,16.53
2018-04-04T13:09:28.537Z,16.50
2018-04-04T13:10:28.116Z,16.47
2018-04-04T13:11:29.074Z,16.51
2018-04-04T13:12:28.606Z,16.57
2018-04-04T13:13:28.660Z,16.60
2018-04-04T13:14:28.196Z,16.60
2018-04-04T13:15:29.109Z,16.61
2018-04-04T13:16:28.682Z,16.50
2018-04-04T13:17:28.688Z,16.49
2018-04-04T13:18:28.461Z,16.47
2018-04-04T13:19:28.442Z,16.39
2018-04-04T13:20:29.033Z,16.29
2018-04-04T13:21:28.412Z,16.24
2018-04-04T13:22:28.349Z,16.10
2018-04-04T13:23:29.392Z,16.05
2018-04-04T13:24:29.221Z,16.05
2018-04-04T13:25:49.784Z,16.08
2018-04-04T13:26:50.799Z,16.10
2018-04-04T13:27:50.908Z,16.08
2018-04-04T13:28:50.788Z,15.94
2018-04-04T13:29:50.799Z,15.82
2018-04-04T13:30:50.307Z,15.80
2018-04-04T13:31:50.203Z,15.82
2018-04-04T13:32:50.208Z,15.84
2018-04-04T13:33:50.104Z,15.82
2018-04-04T13:34:50.382Z,15.88
2018-04-04T13:36:11.809Z,15.92
2018-04-04T13:37:12.534Z,15.91
2018-04-04T13:38:12.505Z,16.00
2018-04-04T13:39:12.608Z,16.08
2018-04-04T13:40:12.711Z,16.16
2018-04-04T13:41:33.923Z,16.32
2018-04-04T13:42:34.148Z,16.36
2018-04-04T13:43:33.976Z,16.31
2018-04-04T13:44:55.015Z,16.23
2018-04-04T13:45:56.049Z,16.15
2018-04-04T13:46:56.158Z,16.08
2018-04-04T13:48:15.948Z,15.98
2018-04-04T13:49:15.614Z,16.04
2018-04-04T13:50:38.182Z,16.04
2018-04-04T13:51:39.169Z,15.94
2018-04-04T13:52:39.196Z,15.86
2018-04-04T13:53:39.238Z,15.83
2018-04-04T13:54:39.137Z,15.73